Виджеты


Виджет Фактической Погоды в аэропортах

Название города
Авиационная погода в Сочи
Время Температура (tC) Точка росы (tC) Направление ветра Скорость ветра (узлы) Условия полета
2021-01-23T17:30:00Z 3.0 0.0 50 8 VFR
Copy and paste this code to your website.

Виджет фактической погоды METAR

Название города
Погода METAR
Авиационная погода в Сочи URSS 231730Z 05004MPS 9999 NSC 03/M00 Q1022 R02/010070 R06/010070 NOSIG RMK R06/09005MPS QFE765
Copy and paste this code to your website.